sensor_id;sensor_type;location;lat;lon;timestamp;P1;durP1;ratioP1;P2;durP2;ratioP2
42616;SDS011;28250;52.320;0.360;2024-02-21T00:01:54;16.67;;;3.55;;
42616;SDS011;28250;52.320;0.360;2024-02-21T00:04:20;15.57;;;2.47;;
42616;SDS011;28250;52.320;0.360;2024-02-21T00:06:46;11.20;;;1.80;;
42616;SDS011;28250;52.320;0.360;2024-02-21T00:09:12;11.20;;;2.85;;
42616;SDS011;28250;52.320;0.360;2024-02-21T00:11:38;14.30;;;3.13;;
42616;SDS011;28250;52.320;0.360;2024-02-21T00:14:04;10.40;;;2.33;;
42616;SDS011;28250;52.320;0.360;2024-02-21T00:16:30;16.17;;;2.03;;
42616;SDS011;28250;52.320;0.360;2024-02-21T00:18:56;14.48;;;2.10;;
42616;SDS011;28250;52.320;0.360;2024-02-21T00:21:22;11.73;;;2.40;;
42616;SDS011;28250;52.320;0.360;2024-02-21T00:23:48;15.95;;;2.20;;
42616;SDS011;28250;52.320;0.360;2024-02-21T00:28:41;14.35;;;2.38;;
42616;SDS011;28250;52.320;0.360;2024-02-21T00:31:07;9.52;;;1.98;;
42616;SDS011;28250;52.320;0.360;2024-02-21T00:33:34;10.15;;;2.10;;
42616;SDS011;28250;52.320;0.360;2024-02-21T00:36:00;10.43;;;2.50;;
42616;SDS011;28250;52.320;0.360;2024-02-21T00:38:26;17.70;;;2.35;;
42616;SDS011;28250;52.320;0.360;2024-02-21T00:40:52;11.38;;;2.80;;
42616;SDS011;28250;52.320;0.360;2024-02-21T00:43:18;8.30;;;1.85;;
42616;SDS011;28250;52.320;0.360;2024-02-21T00:45:44;11.63;;;1.73;;
42616;SDS011;28250;52.320;0.360;2024-02-21T00:48:10;24.33;;;3.25;;
42616;SDS011;28250;52.320;0.360;2024-02-21T00:50:36;16.08;;;2.13;;
42616;SDS011;28250;52.320;0.360;2024-02-21T00:53:03;12.18;;;2.20;;
42616;SDS011;28250;52.320;0.360;2024-02-21T00:55:29;9.20;;;1.70;;
42616;SDS011;28250;52.320;0.360;2024-02-21T00:57:55;10.43;;;2.38;;
42616;SDS011;28250;52.320;0.360;2024-02-21T01:00:21;15.02;;;2.03;;
42616;SDS011;28250;52.320;0.360;2024-02-21T01:02:48;15.73;;;2.35;;
42616;SDS011;28250;52.320;0.360;2024-02-21T01:05:14;10.38;;;2.28;;
42616;SDS011;28250;52.320;0.360;2024-02-21T01:07:40;16.40;;;2.63;;
42616;SDS011;28250;52.320;0.360;2024-02-21T01:10:06;14.05;;;2.95;;
42616;SDS011;28250;52.320;0.360;2024-02-21T01:12:33;15.63;;;2.78;;
42616;SDS011;28250;52.320;0.360;2024-02-21T01:14:59;12.80;;;2.60;;
42616;SDS011;28250;52.320;0.360;2024-02-21T01:17:25;16.17;;;2.92;;
42616;SDS011;28250;52.320;0.360;2024-02-21T01:19:51;13.55;;;2.17;;
42616;SDS011;28250;52.320;0.360;2024-02-21T01:22:17;10.85;;;2.03;;
42616;SDS011;28250;52.320;0.360;2024-02-21T01:24:43;10.90;;;2.70;;
42616;SDS011;28250;52.320;0.360;2024-02-21T01:27:09;14.65;;;3.03;;
42616;SDS011;28250;52.320;0.360;2024-02-21T01:29:35;11.88;;;2.50;;
42616;SDS011;28250;52.320;0.360;2024-02-21T01:32:01;21.48;;;3.00;;
42616;SDS011;28250;52.320;0.360;2024-02-21T01:34:27;13.73;;;2.58;;
42616;SDS011;28250;52.320;0.360;2024-02-21T01:36:53;14.00;;;2.92;;
42616;SDS011;28250;52.320;0.360;2024-02-21T01:39:19;12.00;;;2.65;;
42616;SDS011;28250;52.320;0.360;2024-02-21T01:41:45;12.68;;;2.30;;
42616;SDS011;28250;52.320;0.360;2024-02-21T01:44:11;18.77;;;4.13;;
42616;SDS011;28250;52.320;0.360;2024-02-21T01:46:39;9.50;;;2.10;;
42616;SDS011;28250;52.320;0.360;2024-02-21T01:49:05;12.82;;;2.25;;
42616;SDS011;28250;52.320;0.360;2024-02-21T01:51:31;10.50;;;2.65;;
42616;SDS011;28250;52.320;0.360;2024-02-21T01:53:57;15.13;;;2.85;;
42616;SDS011;28250;52.320;0.360;2024-02-21T01:56:24;15.25;;;2.55;;
42616;SDS011;28250;52.320;0.360;2024-02-21T01:58:51;11.52;;;2.60;;
42616;SDS011;28250;52.320;0.360;2024-02-21T02:01:17;11.88;;;2.63;;
42616;SDS011;28250;52.320;0.360;2024-02-21T02:03:45;12.73;;;2.67;;
42616;SDS011;28250;52.320;0.360;2024-02-21T02:06:11;10.82;;;1.95;;
42616;SDS011;28250;52.320;0.360;2024-02-21T02:08:38;16.35;;;2.33;;
42616;SDS011;28250;52.320;0.360;2024-02-21T02:11:04;15.45;;;2.15;;
42616;SDS011;28250;52.320;0.360;2024-02-21T02:13:30;12.02;;;2.97;;
42616;SDS011;28250;52.320;0.360;2024-02-21T02:15:56;16.67;;;2.88;;
42616;SDS011;28250;52.320;0.360;2024-02-21T02:18:22;12.50;;;2.75;;
42616;SDS011;28250;52.320;0.360;2024-02-21T02:20:48;9.23;;;2.30;;
42616;SDS011;28250;52.320;0.360;2024-02-21T02:23:47;12.95;;;2.90;;
42616;SDS011;28250;52.320;0.360;2024-02-21T02:26:07;13.57;;;2.75;;
42616;SDS011;28250;52.320;0.360;2024-02-21T02:28:33;19.88;;;2.83;;
42616;SDS011;28250;52.320;0.360;2024-02-21T02:31:03;14.35;;;2.60;;
42616;SDS011;28250;52.320;0.360;2024-02-21T02:33:34;7.47;;;2.30;;
42616;SDS011;28250;52.320;0.360;2024-02-21T02:36:00;9.15;;;1.95;;
42616;SDS011;28250;52.320;0.360;2024-02-21T02:38:26;8.85;;;2.08;;
42616;SDS011;28250;52.320;0.360;2024-02-21T02:40:52;12.90;;;2.88;;
42616;SDS011;28250;52.320;0.360;2024-02-21T02:43:18;14.30;;;2.38;;
42616;SDS011;28250;52.320;0.360;2024-02-21T02:45:44;9.20;;;2.45;;
42616;SDS011;28250;52.320;0.360;2024-02-21T02:48:10;14.98;;;2.33;;
42616;SDS011;28250;52.320;0.360;2024-02-21T02:50:36;13.52;;;2.45;;
42616;SDS011;28250;52.320;0.360;2024-02-21T02:53:02;17.90;;;3.33;;
42616;SDS011;28250;52.320;0.360;2024-02-21T02:55:28;13.73;;;2.38;;
42616;SDS011;28250;52.320;0.360;2024-02-21T02:57:54;14.32;;;2.65;;
42616;SDS011;28250;52.320;0.360;2024-02-21T03:00:21;14.02;;;2.80;;
42616;SDS011;28250;52.320;0.360;2024-02-21T03:02:48;12.30;;;1.90;;
42616;SDS011;28250;52.320;0.360;2024-02-21T03:05:17;13.75;;;2.75;;
42616;SDS011;28250;52.320;0.360;2024-02-21T03:07:45;10.98;;;2.45;;
42616;SDS011;28250;52.320;0.360;2024-02-21T03:10:12;8.55;;;2.10;;
42616;SDS011;28250;52.320;0.360;2024-02-21T03:12:41;9.48;;;2.80;;
42616;SDS011;28250;52.320;0.360;2024-02-21T03:15:08;9.20;;;2.33;;
42616;SDS011;28250;52.320;0.360;2024-02-21T03:17:34;14.88;;;2.58;;
42616;SDS011;28250;52.320;0.360;2024-02-21T03:20:01;10.85;;;2.55;;
42616;SDS011;28250;52.320;0.360;2024-02-21T03:22:30;12.25;;;2.15;;
42616;SDS011;28250;52.320;0.360;2024-02-21T03:27:23;14.63;;;2.83;;
42616;SDS011;28250;52.320;0.360;2024-02-21T03:29:49;15.73;;;2.33;;
42616;SDS011;28250;52.320;0.360;2024-02-21T03:32:18;11.32;;;3.00;;
42616;SDS011;28250;52.320;0.360;2024-02-21T03:34:44;13.00;;;2.10;;
42616;SDS011;28250;52.320;0.360;2024-02-21T03:37:10;14.95;;;2.55;;
42616;SDS011;28250;52.320;0.360;2024-02-21T03:39:39;11.98;;;2.45;;
42616;SDS011;28250;52.320;0.360;2024-02-21T03:42:05;19.20;;;3.65;;
42616;SDS011;28250;52.320;0.360;2024-02-21T03:44:32;15.00;;;2.33;;
42616;SDS011;28250;52.320;0.360;2024-02-21T03:46:59;15.40;;;3.07;;
42616;SDS011;28250;52.320;0.360;2024-02-21T03:49:25;14.67;;;2.60;;
42616;SDS011;28250;52.320;0.360;2024-02-21T03:51:52;15.73;;;2.43;;
42616;SDS011;28250;52.320;0.360;2024-02-21T03:54:18;13.48;;;2.40;;
42616;SDS011;28250;52.320;0.360;2024-02-21T03:56:44;10.00;;;2.67;;
42616;SDS011;28250;52.320;0.360;2024-02-21T03:59:13;11.05;;;2.45;;
42616;SDS011;28250;52.320;0.360;2024-02-21T04:01:39;12.93;;;2.70;;
42616;SDS011;28250;52.320;0.360;2024-02-21T04:04:05;13.45;;;2.67;;
42616;SDS011;28250;52.320;0.360;2024-02-21T04:06:31;18.00;;;2.78;;
42616;SDS011;28250;52.320;0.360;2024-02-21T04:08:57;20.67;;;3.35;;
42616;SDS011;28250;52.320;0.360;2024-02-21T04:11:23;12.77;;;2.42;;
42616;SDS011;28250;52.320;0.360;2024-02-21T04:13:49;21.40;;;3.40;;
42616;SDS011;28250;52.320;0.360;2024-02-21T04:16:16;19.55;;;2.40;;
42616;SDS011;28250;52.320;0.360;2024-02-21T04:18:46;6.78;;;2.50;;
42616;SDS011;28250;52.320;0.360;2024-02-21T04:21:14;11.95;;;2.92;;
42616;SDS011;28250;52.320;0.360;2024-02-21T04:23:41;15.20;;;2.53;;
42616;SDS011;28250;52.320;0.360;2024-02-21T04:26:08;11.65;;;2.33;;
42616;SDS011;28250;52.320;0.360;2024-02-21T04:28:34;8.25;;;2.25;;
42616;SDS011;28250;52.320;0.360;2024-02-21T04:31:00;11.63;;;2.47;;
42616;SDS011;28250;52.320;0.360;2024-02-21T04:33:26;12.98;;;2.65;;
42616;SDS011;28250;52.320;0.360;2024-02-21T04:35:52;15.43;;;3.58;;
42616;SDS011;28250;52.320;0.360;2024-02-21T04:38:20;16.40;;;3.10;;
42616;SDS011;28250;52.320;0.360;2024-02-21T04:40:46;11.98;;;2.33;;
42616;SDS011;28250;52.320;0.360;2024-02-21T04:43:12;15.50;;;2.85;;
42616;SDS011;28250;52.320;0.360;2024-02-21T04:45:38;14.07;;;3.30;;
42616;SDS011;28250;52.320;0.360;2024-02-21T04:48:04;10.68;;;2.15;;
42616;SDS011;28250;52.320;0.360;2024-02-21T04:50:30;7.47;;;2.15;;
42616;SDS011;28250;52.320;0.360;2024-02-21T04:52:56;17.38;;;3.08;;
42616;SDS011;28250;52.320;0.360;2024-02-21T04:55:22;18.08;;;3.25;;
42616;SDS011;28250;52.320;0.360;2024-02-21T04:57:48;12.60;;;2.67;;
42616;SDS011;28250;52.320;0.360;2024-02-21T05:00:14;18.08;;;4.15;;
42616;SDS011;28250;52.320;0.360;2024-02-21T05:02:41;15.13;;;4.05;;
42616;SDS011;28250;52.320;0.360;2024-02-21T05:05:07;10.03;;;3.10;;
42616;SDS011;28250;52.320;0.360;2024-02-21T05:07:34;13.23;;;3.63;;
42616;SDS011;28250;52.320;0.360;2024-02-21T05:10:00;9.43;;;3.97;;
42616;SDS011;28250;52.320;0.360;2024-02-21T05:12:27;15.63;;;3.70;;
42616;SDS011;28250;52.320;0.360;2024-02-21T05:14:53;15.23;;;4.05;;
42616;SDS011;28250;52.320;0.360;2024-02-21T05:17:19;20.17;;;4.57;;
42616;SDS011;28250;52.320;0.360;2024-02-21T05:19:45;11.77;;;3.92;;
42616;SDS011;28250;52.320;0.360;2024-02-21T05:22:11;11.25;;;3.80;;
42616;SDS011;28250;52.320;0.360;2024-02-21T05:24:38;13.18;;;3.58;;
42616;SDS011;28250;52.320;0.360;2024-02-21T05:27:05;9.98;;;3.67;;
42616;SDS011;28250;52.320;0.360;2024-02-21T05:29:32;13.18;;;3.90;;
42616;SDS011;28250;52.320;0.360;2024-02-21T05:31:58;14.32;;;3.38;;
42616;SDS011;28250;52.320;0.360;2024-02-21T05:34:25;13.55;;;3.83;;
42616;SDS011;28250;52.320;0.360;2024-02-21T05:36:51;10.43;;;3.78;;
42616;SDS011;28250;52.320;0.360;2024-02-21T05:39:18;17.65;;;3.97;;
42616;SDS011;28250;52.320;0.360;2024-02-21T05:41:44;12.82;;;4.13;;
42616;SDS011;28250;52.320;0.360;2024-02-21T05:44:10;13.77;;;3.17;;
42616;SDS011;28250;52.320;0.360;2024-02-21T05:46:37;9.25;;;2.80;;
42616;SDS011;28250;52.320;0.360;2024-02-21T05:49:03;14.75;;;3.85;;
42616;SDS011;28250;52.320;0.360;2024-02-21T05:51:32;12.63;;;3.63;;
42616;SDS011;28250;52.320;0.360;2024-02-21T05:53:59;12.38;;;2.65;;
42616;SDS011;28250;52.320;0.360;2024-02-21T05:56:25;11.60;;;2.65;;
42616;SDS011;28250;52.320;0.360;2024-02-21T05:58:52;14.00;;;3.90;;
42616;SDS011;28250;52.320;0.360;2024-02-21T06:01:18;15.82;;;3.20;;
42616;SDS011;28250;52.320;0.360;2024-02-21T06:03:44;13.68;;;2.90;;
42616;SDS011;28250;52.320;0.360;2024-02-21T06:06:10;14.95;;;3.97;;
42616;SDS011;28250;52.320;0.360;2024-02-21T06:08:37;13.80;;;3.55;;
42616;SDS011;28250;52.320;0.360;2024-02-21T06:11:05;14.70;;;3.90;;
42616;SDS011;28250;52.320;0.360;2024-02-21T06:13:31;12.55;;;4.43;;
42616;SDS011;28250;52.320;0.360;2024-02-21T06:15:57;11.20;;;2.72;;
42616;SDS011;28250;52.320;0.360;2024-02-21T06:18:23;11.80;;;2.50;;
42616;SDS011;28250;52.320;0.360;2024-02-21T06:20:49;16.02;;;2.53;;
42616;SDS011;28250;52.320;0.360;2024-02-21T06:23:15;14.25;;;2.85;;
42616;SDS011;28250;52.320;0.360;2024-02-21T06:25:42;17.50;;;2.83;;
42616;SDS011;28250;52.320;0.360;2024-02-21T06:28:08;16.37;;;2.93;;
42616;SDS011;28250;52.320;0.360;2024-02-21T06:30:35;12.77;;;2.40;;
42616;SDS011;28250;52.320;0.360;2024-02-21T06:33:01;14.15;;;3.17;;
42616;SDS011;28250;52.320;0.360;2024-02-21T06:35:28;13.43;;;2.63;;
42616;SDS011;28250;52.320;0.360;2024-02-21T06:37:54;6.60;;;2.55;;
42616;SDS011;28250;52.320;0.360;2024-02-21T06:40:23;12.65;;;2.85;;
42616;SDS011;28250;52.320;0.360;2024-02-21T06:42:50;11.40;;;2.50;;
42616;SDS011;28250;52.320;0.360;2024-02-21T06:45:16;12.25;;;2.60;;
42616;SDS011;28250;52.320;0.360;2024-02-21T06:47:42;8.18;;;2.05;;
42616;SDS011;28250;52.320;0.360;2024-02-21T06:50:09;7.80;;;2.15;;
42616;SDS011;28250;52.320;0.360;2024-02-21T06:52:38;13.53;;;3.47;;
42616;SDS011;28250;52.320;0.360;2024-02-21T06:55:04;19.35;;;3.03;;
42616;SDS011;28250;52.320;0.360;2024-02-21T06:57:30;13.02;;;3.20;;
42616;SDS011;28250;52.320;0.360;2024-02-21T06:59:56;10.52;;;2.28;;
42616;SDS011;28250;52.320;0.360;2024-02-21T07:02:22;15.38;;;3.38;;
42616;SDS011;28250;52.320;0.360;2024-02-21T07:04:49;9.25;;;2.92;;
42616;SDS011;28250;52.320;0.360;2024-02-21T07:07:15;17.08;;;2.70;;
42616;SDS011;28250;52.320;0.360;2024-02-21T07:09:41;8.68;;;2.40;;
42616;SDS011;28250;52.320;0.360;2024-02-21T07:12:07;13.68;;;2.65;;
42616;SDS011;28250;52.320;0.360;2024-02-21T07:14:33;8.95;;;2.33;;
42616;SDS011;28250;52.320;0.360;2024-02-21T07:17:01;12.32;;;2.17;;
42616;SDS011;28250;52.320;0.360;2024-02-21T07:19:27;9.73;;;2.17;;
42616;SDS011;28250;52.320;0.360;2024-02-21T07:21:53;10.90;;;2.53;;
42616;SDS011;28250;52.320;0.360;2024-02-21T07:24:19;8.18;;;2.30;;
42616;SDS011;28250;52.320;0.360;2024-02-21T07:26:45;11.65;;;2.42;;
42616;SDS011;28250;52.320;0.360;2024-02-21T07:29:11;8.60;;;2.60;;
42616;SDS011;28250;52.320;0.360;2024-02-21T07:31:41;7.03;;;2.25;;
42616;SDS011;28250;52.320;0.360;2024-02-21T07:34:08;9.02;;;2.50;;
42616;SDS011;28250;52.320;0.360;2024-02-21T07:36:34;10.02;;;2.40;;
42616;SDS011;28250;52.320;0.360;2024-02-21T07:39:00;12.45;;;2.75;;
42616;SDS011;28250;52.320;0.360;2024-02-21T07:41:26;19.35;;;4.00;;
42616;SDS011;28250;52.320;0.360;2024-02-21T07:43:55;10.35;;;2.47;;
42616;SDS011;28250;52.320;0.360;2024-02-21T07:46:21;5.20;;;2.40;;
42616;SDS011;28250;52.320;0.360;2024-02-21T07:48:48;9.00;;;1.73;;
42616;SDS011;28250;52.320;0.360;2024-02-21T07:51:14;6.57;;;1.83;;
42616;SDS011;28250;52.320;0.360;2024-02-21T07:53:43;4.28;;;1.83;;
42616;SDS011;28250;52.320;0.360;2024-02-21T07:56:11;8.43;;;1.85;;
42616;SDS011;28250;52.320;0.360;2024-02-21T07:58:37;9.77;;;2.30;;
42616;SDS011;28250;52.320;0.360;2024-02-21T08:01:03;8.35;;;2.20;;
42616;SDS011;28250;52.320;0.360;2024-02-21T08:03:29;11.25;;;1.75;;
42616;SDS011;28250;52.320;0.360;2024-02-21T08:05:55;5.75;;;1.67;;
42616;SDS011;28250;52.320;0.360;2024-02-21T08:08:21;5.53;;;2.00;;
42616;SDS011;28250;52.320;0.360;2024-02-21T08:10:51;7.45;;;1.60;;
42616;SDS011;28250;52.320;0.360;2024-02-21T08:13:18;5.15;;;1.70;;
42616;SDS011;28250;52.320;0.360;2024-02-21T08:15:44;8.07;;;1.80;;
42616;SDS011;28250;52.320;0.360;2024-02-21T08:18:10;5.53;;;1.77;;
42616;SDS011;28250;52.320;0.360;2024-02-21T08:20:36;12.23;;;1.92;;
42616;SDS011;28250;52.320;0.360;2024-02-21T08:23:02;11.75;;;1.70;;
42616;SDS011;28250;52.320;0.360;2024-02-21T08:25:28;6.22;;;1.40;;
42616;SDS011;28250;52.320;0.360;2024-02-21T08:27:57;3.15;;;1.38;;
42616;SDS011;28250;52.320;0.360;2024-02-21T08:30:24;6.38;;;2.30;;
42616;SDS011;28250;52.320;0.360;2024-02-21T08:32:51;6.40;;;1.40;;
42616;SDS011;28250;52.320;0.360;2024-02-21T08:35:19;5.35;;;1.85;;
42616;SDS011;28250;52.320;0.360;2024-02-21T08:37:47;3.28;;;1.50;;
42616;SDS011;28250;52.320;0.360;2024-02-21T08:40:14;4.28;;;1.50;;
42616;SDS011;28250;52.320;0.360;2024-02-21T08:42:43;4.60;;;1.30;;
42616;SDS011;28250;52.320;0.360;2024-02-21T08:45:10;4.10;;;1.55;;
42616;SDS011;28250;52.320;0.360;2024-02-21T08:47:36;8.07;;;1.75;;
42616;SDS011;28250;52.320;0.360;2024-02-21T08:50:05;5.90;;;2.28;;
42616;SDS011;28250;52.320;0.360;2024-02-21T08:52:32;8.27;;;2.00;;
42616;SDS011;28250;52.320;0.360;2024-02-21T08:54:58;3.45;;;1.95;;
42616;SDS011;28250;52.320;0.360;2024-02-21T08:57:24;5.15;;;2.00;;
42616;SDS011;28250;52.320;0.360;2024-02-21T08:59:50;3.88;;;2.00;;
42616;SDS011;28250;52.320;0.360;2024-02-21T09:02:16;5.25;;;2.22;;
42616;SDS011;28250;52.320;0.360;2024-02-21T09:04:42;4.07;;;2.08;;
42616;SDS011;28250;52.320;0.360;2024-02-21T09:07:11;4.05;;;2.20;;
42616;SDS011;28250;52.320;0.360;2024-02-21T09:09:37;6.03;;;2.35;;
42616;SDS011;28250;52.320;0.360;2024-02-21T09:12:07;3.63;;;2.00;;
42616;SDS011;28250;52.320;0.360;2024-02-21T09:14:34;5.18;;;2.13;;
42616;SDS011;28250;52.320;0.360;2024-02-21T09:17:03;6.40;;;2.40;;
42616;SDS011;28250;52.320;0.360;2024-02-21T09:19:30;2.67;;;1.67;;
42616;SDS011;28250;52.320;0.360;2024-02-21T09:21:56;4.35;;;1.77;;
42616;SDS011;28250;52.320;0.360;2024-02-21T09:24:22;2.97;;;1.85;;
42616;SDS011;28250;52.320;0.360;2024-02-21T09:26:48;4.22;;;1.60;;
42616;SDS011;28250;52.320;0.360;2024-02-21T09:29:15;7.43;;;1.73;;
42616;SDS011;28250;52.320;0.360;2024-02-21T09:31:41;5.45;;;1.83;;
42616;SDS011;28250;52.320;0.360;2024-02-21T09:34:07;3.97;;;1.63;;
42616;SDS011;28250;52.320;0.360;2024-02-21T09:36:33;5.05;;;1.92;;
42616;SDS011;28250;52.320;0.360;2024-02-21T09:38:59;5.32;;;1.80;;
42616;SDS011;28250;52.320;0.360;2024-02-21T09:41:26;5.80;;;1.90;;
42616;SDS011;28250;52.320;0.360;2024-02-21T09:43:55;2.22;;;1.70;;
42616;SDS011;28250;52.320;0.360;2024-02-21T09:46:56;1.90;;;1.20;;
42616;SDS011;28250;52.320;0.360;2024-02-21T09:49:31;7.25;;;2.38;;
42616;SDS011;28250;52.320;0.360;2024-02-21T09:52:02;3.00;;;1.30;;
42616;SDS011;28250;52.320;0.360;2024-02-21T09:54:30;4.40;;;1.40;;
42616;SDS011;28250;52.320;0.360;2024-02-21T09:56:59;3.30;;;1.42;;
42616;SDS011;28250;52.320;0.360;2024-02-21T09:59:27;4.97;;;1.67;;
42616;SDS011;28250;52.320;0.360;2024-02-21T10:01:54;2.05;;;1.27;;
42616;SDS011;28250;52.320;0.360;2024-02-21T10:04:21;5.80;;;1.65;;
42616;SDS011;28250;52.320;0.360;2024-02-21T10:06:47;3.70;;;1.10;;
42616;SDS011;28250;52.320;0.360;2024-02-21T10:09:26;7.82;;;1.52;;
42616;SDS011;28250;52.320;0.360;2024-02-21T10:11:54;6.45;;;1.45;;
42616;SDS011;28250;52.320;0.360;2024-02-21T10:14:21;5.40;;;1.40;;
42616;SDS011;28250;52.320;0.360;2024-02-21T10:16:48;2.40;;;1.25;;
42616;SDS011;28250;52.320;0.360;2024-02-21T10:19:21;3.75;;;1.45;;
42616;SDS011;28250;52.320;0.360;2024-02-21T10:24:35;3.67;;;1.20;;
42616;SDS011;28250;52.320;0.360;2024-02-21T10:27:07;3.20;;;1.05;;
42616;SDS011;28250;52.320;0.360;2024-02-21T10:29:36;9.77;;;1.98;;
42616;SDS011;28250;52.320;0.360;2024-02-21T10:32:10;5.25;;;1.17;;
42616;SDS011;28250;52.320;0.360;2024-02-21T10:34:39;6.63;;;1.30;;
42616;SDS011;28250;52.320;0.360;2024-02-21T10:37:07;7.22;;;1.23;;
42616;SDS011;28250;52.320;0.360;2024-02-21T10:39:39;2.83;;;1.10;;
42616;SDS011;28250;52.320;0.360;2024-02-21T10:42:06;3.47;;;1.55;;
42616;SDS011;28250;52.320;0.360;2024-02-21T10:44:39;2.88;;;1.20;;
42616;SDS011;28250;52.320;0.360;2024-02-21T10:47:09;3.58;;;0.73;;
42616;SDS011;28250;52.320;0.360;2024-02-21T10:49:39;2.47;;;0.90;;
42616;SDS011;28250;52.320;0.360;2024-02-21T10:55:20;3.47;;;0.95;;
42616;SDS011;28250;52.320;0.360;2024-02-21T10:57:53;3.63;;;1.00;;
42616;SDS011;28250;52.320;0.360;2024-02-21T11:00:20;4.10;;;1.50;;
42616;SDS011;28250;52.320;0.360;2024-02-21T11:02:46;1.42;;;0.70;;
42616;SDS011;28250;52.320;0.360;2024-02-21T11:05:14;2.92;;;0.77;;
42616;SDS011;28250;52.320;0.360;2024-02-21T11:07:41;3.45;;;1.13;;
42616;SDS011;28250;52.320;0.360;2024-02-21T11:10:20;2.50;;;0.80;;
42616;SDS011;28250;52.320;0.360;2024-02-21T11:12:48;3.00;;;1.00;;
42616;SDS011;28250;52.320;0.360;2024-02-21T11:15:25;2.60;;;0.90;;
42616;SDS011;28250;52.320;0.360;2024-02-21T11:17:55;2.80;;;0.93;;
42616;SDS011;28250;52.320;0.360;2024-02-21T11:20:31;3.17;;;0.93;;
42616;SDS011;28250;52.320;0.360;2024-02-21T11:25:26;1.15;;;0.80;;
42616;SDS011;28250;52.320;0.360;2024-02-21T11:28:02;2.78;;;1.30;;
42616;SDS011;28250;52.320;0.360;2024-02-21T11:30:30;2.88;;;0.80;;
42616;SDS011;28250;52.320;0.360;2024-02-21T11:33:01;3.17;;;1.00;;
42616;SDS011;28250;52.320;0.360;2024-02-21T11:35:35;1.20;;;0.75;;
42616;SDS011;28250;52.320;0.360;2024-02-21T11:38:11;5.15;;;0.85;;
42616;SDS011;28250;52.320;0.360;2024-02-21T11:40:43;3.47;;;0.93;;
42616;SDS011;28250;52.320;0.360;2024-02-21T11:43:11;2.30;;;0.70;;
42616;SDS011;28250;52.320;0.360;2024-02-21T11:45:37;4.93;;;0.60;;
42616;SDS011;28250;52.320;0.360;2024-02-21T11:48:07;2.90;;;0.65;;
42616;SDS011;28250;52.320;0.360;2024-02-21T11:50:34;1.02;;;0.70;;
42616;SDS011;28250;52.320;0.360;2024-02-21T11:53:05;3.70;;;0.68;;
42616;SDS011;28250;52.320;0.360;2024-02-21T11:55:31;2.95;;;0.90;;
42616;SDS011;28250;52.320;0.360;2024-02-21T11:57:57;1.80;;;0.68;;
42616;SDS011;28250;52.320;0.360;2024-02-21T12:00:23;1.55;;;0.60;;
42616;SDS011;28250;52.320;0.360;2024-02-21T12:02:51;2.05;;;0.63;;
42616;SDS011;28250;52.320;0.360;2024-02-21T12:05:18;2.10;;;0.70;;
42616;SDS011;28250;52.320;0.360;2024-02-21T12:07:45;5.07;;;0.75;;
42616;SDS011;28250;52.320;0.360;2024-02-21T12:10:12;1.15;;;0.70;;
42616;SDS011;28250;52.320;0.360;2024-02-21T12:12:39;2.22;;;0.93;;
42616;SDS011;28250;52.320;0.360;2024-02-21T12:15:05;1.38;;;0.60;;
42616;SDS011;28250;52.320;0.360;2024-02-21T12:20:02;2.70;;;1.23;;
42616;SDS011;28250;52.320;0.360;2024-02-21T12:22:37;1.90;;;0.65;;
42616;SDS011;28250;52.320;0.360;2024-02-21T12:25:04;0.57;;;0.40;;
42616;SDS011;28250;52.320;0.360;2024-02-21T12:27:44;0.40;;;0.40;;
42616;SDS011;28250;52.320;0.360;2024-02-21T12:30:11;1.17;;;0.60;;
42616;SDS011;28250;52.320;0.360;2024-02-21T12:32:38;1.45;;;0.50;;
42616;SDS011;28250;52.320;0.360;2024-02-21T12:35:04;1.88;;;0.60;;
42616;SDS011;28250;52.320;0.360;2024-02-21T12:37:30;1.83;;;0.70;;
42616;SDS011;28250;52.320;0.360;2024-02-21T12:39:58;0.95;;;0.55;;
42616;SDS011;28250;52.320;0.360;2024-02-21T12:42:25;1.50;;;0.65;;
42616;SDS011;28250;52.320;0.360;2024-02-21T12:44:52;2.88;;;0.50;;
42616;SDS011;28250;52.320;0.360;2024-02-21T12:47:18;1.30;;;0.50;;
42616;SDS011;28250;52.320;0.360;2024-02-21T12:49:48;1.65;;;0.60;;
42616;SDS011;28250;52.320;0.360;2024-02-21T12:52:15;2.15;;;0.50;;
42616;SDS011;28250;52.320;0.360;2024-02-21T12:54:41;1.17;;;0.60;;
42616;SDS011;28250;52.320;0.360;2024-02-21T12:57:10;0.93;;;0.45;;
42616;SDS011;28250;52.320;0.360;2024-02-21T12:59:36;0.88;;;0.40;;
42616;SDS011;28250;52.320;0.360;2024-02-21T13:02:02;0.95;;;0.50;;
42616;SDS011;28250;52.320;0.360;2024-02-21T13:04:29;1.35;;;0.35;;
42616;SDS011;28250;52.320;0.360;2024-02-21T13:06:55;1.23;;;0.40;;
42616;SDS011;28250;52.320;0.360;2024-02-21T13:09:21;0.63;;;0.40;;
42616;SDS011;28250;52.320;0.360;2024-02-21T13:11:47;0.52;;;0.32;;
42616;SDS011;28250;52.320;0.360;2024-02-21T13:14:13;0.93;;;0.32;;
42616;SDS011;28250;52.320;0.360;2024-02-21T13:16:39;0.50;;;0.40;;
42616;SDS011;28250;52.320;0.360;2024-02-21T13:19:06;0.98;;;0.50;;
42616;SDS011;28250;52.320;0.360;2024-02-21T13:21:36;2.13;;;0.82;;
42616;SDS011;28250;52.320;0.360;2024-02-21T13:24:02;1.08;;;0.50;;
42616;SDS011;28250;52.320;0.360;2024-02-21T13:26:28;0.53;;;0.23;;
42616;SDS011;28250;52.320;0.360;2024-02-21T13:28:54;1.50;;;0.68;;
42616;SDS011;28250;52.320;0.360;2024-02-21T13:31:21;0.45;;;0.30;;
42616;SDS011;28250;52.320;0.360;2024-02-21T13:33:47;1.40;;;0.70;;
42616;SDS011;28250;52.320;0.360;2024-02-21T13:36:13;0.52;;;0.47;;
42616;SDS011;28250;52.320;0.360;2024-02-21T13:38:39;0.40;;;0.30;;
42616;SDS011;28250;52.320;0.360;2024-02-21T13:41:05;1.67;;;0.43;;
42616;SDS011;28250;52.320;0.360;2024-02-21T13:43:32;2.57;;;0.33;;
42616;SDS011;28250;52.320;0.360;2024-02-21T13:46:00;1.20;;;0.30;;
42616;SDS011;28250;52.320;0.360;2024-02-21T13:48:28;0.98;;;0.30;;
42616;SDS011;28250;52.320;0.360;2024-02-21T13:50:55;0.38;;;0.35;;
42616;SDS011;28250;52.320;0.360;2024-02-21T13:53:21;0.65;;;0.20;;
42616;SDS011;28250;52.320;0.360;2024-02-21T13:55:48;1.58;;;0.30;;
42616;SDS011;28250;52.320;0.360;2024-02-21T13:58:15;0.30;;;0.20;;
42616;SDS011;28250;52.320;0.360;2024-02-21T14:03:08;0.93;;;0.30;;
42616;SDS011;28250;52.320;0.360;2024-02-21T14:05:35;1.75;;;0.25;;
42616;SDS011;28250;52.320;0.360;2024-02-21T14:08:01;1.67;;;0.47;;
42616;SDS011;28250;52.320;0.360;2024-02-21T14:10:27;1.23;;;0.30;;
42616;SDS011;28250;52.320;0.360;2024-02-21T14:12:53;0.95;;;0.20;;
42616;SDS011;28250;52.320;0.360;2024-02-21T14:15:20;0.88;;;0.40;;
42616;SDS011;28250;52.320;0.360;2024-02-21T14:17:46;0.30;;;0.28;;
42616;SDS011;28250;52.320;0.360;2024-02-21T14:20:12;0.95;;;0.20;;
42616;SDS011;28250;52.320;0.360;2024-02-21T14:22:41;0.30;;;0.30;;
42616;SDS011;28250;52.320;0.360;2024-02-21T14:25:08;1.73;;;0.40;;
42616;SDS011;28250;52.320;0.360;2024-02-21T14:27:34;1.85;;;0.30;;
42616;SDS011;28250;52.320;0.360;2024-02-21T14:30:03;0.55;;;0.38;;
42616;SDS011;28250;52.320;0.360;2024-02-21T14:32:30;2.50;;;0.32;;
42616;SDS011;28250;52.320;0.360;2024-02-21T14:34:57;2.33;;;0.57;;
42616;SDS011;28250;52.320;0.360;2024-02-21T14:37:23;1.00;;;0.50;;
42616;SDS011;28250;52.320;0.360;2024-02-21T14:39:49;1.65;;;0.30;;
42616;SDS011;28250;52.320;0.360;2024-02-21T14:42:15;0.90;;;0.30;;
42616;SDS011;28250;52.320;0.360;2024-02-21T14:44:42;1.70;;;0.40;;
42616;SDS011;28250;52.320;0.360;2024-02-21T14:47:09;2.88;;;0.38;;
42616;SDS011;28250;52.320;0.360;2024-02-21T14:49:35;0.35;;;0.30;;
42616;SDS011;28250;52.320;0.360;2024-02-21T14:52:01;0.75;;;0.40;;
42616;SDS011;28250;52.320;0.360;2024-02-21T14:54:28;1.63;;;0.40;;
42616;SDS011;28250;52.320;0.360;2024-02-21T14:56:54;1.67;;;0.50;;
42616;SDS011;28250;52.320;0.360;2024-02-21T14:59:20;2.00;;;0.57;;